createdAt,value
2022-09-29T00:00:36.444Z,99097.31
2022-09-29T00:03:03.411Z,99091.94
2022-09-29T00:05:30.651Z,99087.41
2022-09-29T00:07:57.144Z,99087.81
2022-09-29T00:10:23.883Z,99101.88
2022-09-29T00:12:50.415Z,99098.13
2022-09-29T00:15:16.938Z,99105.38
2022-09-29T00:18:02.685Z,99098.56
2022-09-29T00:20:30.133Z,99104.75
2022-09-29T00:22:56.529Z,99104.56
2022-09-29T00:25:22.912Z,99112.63
2022-09-29T00:27:49.348Z,99089.88
2022-09-29T00:30:15.884Z,99104.56
2022-09-29T00:32:42.291Z,99111.81
2022-09-29T00:35:10.123Z,99112.81
2022-09-29T00:37:36.959Z,99107.66
2022-09-29T00:40:04.979Z,99112.63
2022-09-29T00:42:32.589Z,99112.00
2022-09-29T00:45:24.980Z,99109.31
2022-09-29T00:48:05.919Z,99122.13
2022-09-29T00:50:53.191Z,99116.75
2022-09-29T00:53:22.578Z,99127.91
2022-09-29T00:55:56.253Z,99122.75
2022-09-29T00:58:34.348Z,99117.56
2022-09-29T01:01:01.600Z,99121.31
2022-09-29T01:03:35.859Z,99127.28
2022-09-29T01:06:05.890Z,99127.28
2022-09-29T01:08:42.175Z,99133.50
2022-09-29T01:11:10.963Z,99137.81
2022-09-29T01:13:38.375Z,99131.81
2022-09-29T01:16:05.110Z,99134.50
2022-09-29T01:18:32.507Z,99134.50
2022-09-29T01:21:16.865Z,99129.16
2022-09-29T01:23:54.548Z,99139.47
2022-09-29T01:26:23.948Z,99141.13
2022-09-29T01:29:07.488Z,99137.41
2022-09-29T01:31:52.369Z,99137.63
2022-09-29T01:34:24.672Z,99134.72
2022-09-29T01:37:06.340Z,99137.81
2022-09-29T01:39:41.972Z,99127.69
2022-09-29T01:42:17.374Z,99138.66
2022-09-29T01:44:50.434Z,99135.75
2022-09-29T01:47:23.209Z,99139.47
2022-09-29T01:50:11.529Z,99144.03
2022-09-29T01:52:45.856Z,99128.72
2022-09-29T01:55:17.025Z,99148.97
2022-09-29T01:57:50.087Z,99148.56
2022-09-29T02:00:19.708Z,99154.34
2022-09-29T02:02:58.871Z,99143.59
2022-09-29T02:05:33.346Z,99149.59
2022-09-29T02:08:32.735Z,99156.22
2022-09-29T02:11:04.871Z,99160.16
2022-09-29T02:14:06.904Z,99155.16
2022-09-29T02:16:43.453Z,99159.28
2022-09-29T02:19:22.798Z,99152.91
2022-09-29T02:21:49.595Z,99151.66
2022-09-29T02:24:16.012Z,99151.22
2022-09-29T02:26:45.228Z,99154.16
2022-09-29T02:29:11.704Z,99155.78
2022-09-29T02:31:40.247Z,99150.22
2022-09-29T02:34:10.134Z,99158.91
2022-09-29T02:36:53.089Z,99157.25
2022-09-29T02:39:53.401Z,99160.78
2022-09-29T02:42:49.896Z,99160.97
2022-09-29T02:45:21.795Z,99164.03
2022-09-29T02:48:12.629Z,99159.53
2022-09-29T02:50:52.625Z,99162.41
2022-09-29T02:53:27.868Z,99150.03
2022-09-29T02:56:04.444Z,99165.72
2022-09-29T02:58:39.431Z,99155.41
2022-09-29T03:01:07.367Z,99158.91
2022-09-29T03:03:33.981Z,99150.22
2022-09-29T03:06:00.933Z,99152.66
2022-09-29T03:08:27.335Z,99157.03
2022-09-29T03:10:53.702Z,99154.53
2022-09-29T03:13:20.116Z,99162.59
2022-09-29T03:15:46.480Z,99159.28
2022-09-29T03:18:13.003Z,99162.59
2022-09-29T03:20:39.575Z,99163.00
2022-09-29T03:23:05.976Z,99159.47
2022-09-29T03:25:32.410Z,99173.34
2022-09-29T03:27:58.922Z,99184.91
2022-09-29T03:30:25.343Z,99184.31
2022-09-29T03:32:52.108Z,99176.03
2022-09-29T03:35:18.524Z,99185.13
2022-09-29T03:37:45.798Z,99187.19
2022-09-29T03:40:12.287Z,99186.13
2022-09-29T03:42:38.723Z,99187.38
2022-09-29T03:45:05.678Z,99190.69
2022-09-29T03:47:32.167Z,99189.88
2022-09-29T03:49:58.574Z,99187.19
2022-09-29T03:52:24.979Z,99182.81
2022-09-29T03:54:51.714Z,99190.69
2022-09-29T03:57:18.171Z,99193.56
2022-09-29T03:59:45.739Z,99197.91
2022-09-29T04:02:12.927Z,99207.00
2022-09-29T04:04:39.375Z,99200.59
2022-09-29T04:07:05.766Z,99202.66
2022-09-29T04:09:32.159Z,99203.50
2022-09-29T04:11:58.542Z,99217.72
2022-09-29T04:14:24.975Z,99217.72
2022-09-29T04:16:51.366Z,99213.41
2022-09-29T04:19:17.770Z,99210.91
2022-09-29T04:21:44.163Z,99210.53
2022-09-29T04:24:10.695Z,99215.91
2022-09-29T04:26:37.099Z,99204.69
2022-09-29T04:29:03.615Z,99215.06
2022-09-29T04:31:30.070Z,99215.91
2022-09-29T04:33:56.481Z,99220.41
2022-09-29T04:36:23.137Z,99222.47
2022-09-29T04:38:51.525Z,99222.28
2022-09-29T04:41:18.234Z,99220.84
2022-09-29T04:43:44.611Z,99227.03
2022-09-29T04:46:11.927Z,99229.94
2022-09-29T04:48:38.403Z,99220.22
2022-09-29T04:51:05.909Z,99228.47
2022-09-29T04:53:32.577Z,99230.53
2022-09-29T04:55:59.358Z,99233.22
2022-09-29T04:58:25.769Z,99236.94
2022-09-29T05:00:52.200Z,99229.94
2022-09-29T05:03:18.648Z,99236.31
2022-09-29T05:05:45.074Z,99240.00
2022-09-29T05:08:11.922Z,99245.19
2022-09-29T05:10:38.315Z,99246.03
2022-09-29T05:13:04.736Z,99244.53
2022-09-29T05:15:31.128Z,99240.00
2022-09-29T05:18:01.415Z,99250.81
2022-09-29T05:20:34.155Z,99252.59
2022-09-29T05:23:09.961Z,99249.91
2022-09-29T05:25:37.691Z,99251.41
2022-09-29T05:28:04.105Z,99250.75
2022-09-29T05:30:30.490Z,99254.09
2022-09-29T05:32:59.016Z,99252.59
2022-09-29T05:35:25.739Z,99246.03
2022-09-29T05:37:52.159Z,99247.88
2022-09-29T05:40:19.672Z,99243.38
2022-09-29T05:42:46.258Z,99245.19
2022-09-29T05:45:12.675Z,99237.34
2022-09-29T05:47:43.475Z,99242.53
2022-09-29T05:50:13.526Z,99247.91
2022-09-29T05:52:41.479Z,99248.72
2022-09-29T05:55:11.264Z,99239.00
2022-09-29T05:57:37.692Z,99248.72
2022-09-29T06:00:05.279Z,99246.22
2022-09-29T06:02:32.673Z,99242.06
2022-09-29T06:04:59.079Z,99254.25
2022-09-29T06:07:25.466Z,99254.25
2022-09-29T06:09:51.900Z,99260.47
2022-09-29T06:12:21.673Z,99255.50
2022-09-29T06:14:48.342Z,99254.25
2022-09-29T06:17:14.746Z,99254.47
2022-09-29T06:19:44.644Z,99259.63
2022-09-29T06:22:11.487Z,99258.81
2022-09-29T06:24:37.983Z,99259.81
2022-09-29T06:27:04.400Z,99259.81
2022-09-29T06:29:30.946Z,99262.50
2022-09-29T06:31:57.363Z,99262.69
2022-09-29T06:37:28.156Z,99272.91
2022-09-29T06:39:54.510Z,99276.97
2022-09-29T06:42:20.909Z,99280.03
2022-09-29T06:44:47.299Z,99280.03
2022-09-29T06:47:13.697Z,99290.41
2022-09-29T06:49:40.077Z,99282.34
2022-09-29T06:52:18.424Z,99274.28
2022-09-29T06:54:47.234Z,99276.97
2022-09-29T06:57:13.768Z,99286.03
2022-09-29T06:59:40.480Z,99276.13
2022-09-29T07:02:07.079Z,99286.03
2022-09-29T07:04:33.731Z,99279.84
2022-09-29T07:07:00.196Z,99284.41
2022-09-29T07:09:26.618Z,99292.47
2022-09-29T07:11:53.081Z,99281.91
2022-09-29T07:14:22.644Z,99291.41
2022-09-29T07:16:49.865Z,99298.03
2022-09-29T07:19:18.279Z,99294.28
2022-09-29T07:21:46.078Z,99301.53
2022-09-29T07:24:13.025Z,99296.97
2022-09-29T07:26:39.436Z,99295.53
2022-09-29T07:29:05.834Z,99299.88
2022-09-29T07:31:42.713Z,99298.84
2022-09-29T07:34:14.156Z,99307.72
2022-09-29T07:36:40.604Z,99310.41
2022-09-29T07:39:09.156Z,99309.59
2022-09-29T07:41:35.522Z,99312.25
2022-09-29T07:44:02.211Z,99303.38
2022-09-29T07:46:28.649Z,99308.56
2022-09-29T07:48:55.118Z,99315.78
2022-09-29T07:51:21.586Z,99316.63
2022-09-29T07:53:49.101Z,99315.16
2022-09-29T07:56:21.086Z,99319.38
2022-09-29T07:58:49.853Z,99323.00
2022-09-29T08:01:17.979Z,99317.63
2022-09-29T08:03:50.213Z,99307.50
2022-09-29T08:06:16.646Z,99323.00
2022-09-29T08:08:51.369Z,99323.41
2022-09-29T08:11:30.443Z,99326.72
2022-09-29T08:13:57.791Z,99337.25
2022-09-29T08:16:24.275Z,99332.72
2022-09-29T08:18:50.783Z,99331.88
2022-09-29T08:21:17.626Z,99330.25
2022-09-29T08:23:44.219Z,99324.25
2022-09-29T08:26:16.384Z,99337.94
2022-09-29T08:28:44.402Z,99326.31
2022-09-29T08:31:15.227Z,99332.72
2022-09-29T08:33:41.691Z,99339.13
2022-09-29T08:36:14.742Z,99340.16
2022-09-29T08:38:46.270Z,99334.81
2022-09-29T08:41:31.158Z,99348.31
2022-09-29T08:44:03.339Z,99348.09
2022-09-29T08:46:39.706Z,99350.16
2022-09-29T08:49:32.681Z,99344.78
2022-09-29T08:52:16.349Z,99354.06
2022-09-29T08:54:48.725Z,99334.34
2022-09-29T08:57:21.561Z,99347.41
2022-09-29T08:59:59.286Z,99348.31
2022-09-29T09:02:50.888Z,99359.69
2022-09-29T09:05:55.837Z,99353.88
2022-09-29T09:08:32.802Z,99365.84
2022-09-29T09:11:27.455Z,99351.63
2022-09-29T09:14:21.263Z,99360.06
2022-09-29T09:16:47.636Z,99353.34
2022-09-29T09:19:39.218Z,99361.53
2022-09-29T09:22:22.719Z,99357.19
2022-09-29T09:25:01.494Z,99360.91
2022-09-29T09:27:35.359Z,99358.41
2022-09-29T09:30:06.727Z,99355.91
2022-09-29T09:32:45.754Z,99346.84
2022-09-29T09:35:29.185Z,99357.19
2022-09-29T09:38:01.591Z,99358.41
2022-09-29T09:40:35.733Z,99357.78
2022-09-29T09:43:14.348Z,99361.09
2022-09-29T09:45:48.881Z,99367.47
2022-09-29T09:48:22.869Z,99375.28
2022-09-29T09:50:50.566Z,99369.91
2022-09-29T09:53:28.684Z,99377.66
2022-09-29T09:56:04.408Z,99378.47
2022-09-29T09:58:51.015Z,99374.84
2022-09-29T10:01:17.867Z,99379.00
2022-09-29T10:03:44.332Z,99375.28
2022-09-29T10:06:10.812Z,99376.50
2022-09-29T10:08:42.026Z,99390.63
2022-09-29T10:11:25.199Z,99389.84
2022-09-29T10:14:13.156Z,99389.84
2022-09-29T10:16:53.826Z,99396.44
2022-09-29T10:19:57.521Z,99397.06
2022-09-29T10:22:24.833Z,99398.63
2022-09-29T10:25:15.438Z,99409.88
2022-09-29T10:27:45.426Z,99404.00
2022-09-29T10:30:24.636Z,99396.44
2022-09-29T10:32:58.559Z,99392.06
2022-09-29T10:35:32.378Z,99405.06
2022-09-29T10:38:06.236Z,99401.56
2022-09-29T10:40:33.001Z,99403.19
2022-09-29T10:43:22.516Z,99401.41
2022-09-29T10:45:49.226Z,99404.00
2022-09-29T10:48:16.347Z,99412.53
2022-09-29T10:50:53.990Z,99410.47
2022-09-29T10:53:36.939Z,99410.47
2022-09-29T10:56:14.892Z,99415.03
2022-09-29T10:58:53.856Z,99405.31
2022-09-29T11:01:26.163Z,99419.53
2022-09-29T11:04:01.455Z,99422.88
2022-09-29T11:06:30.333Z,99423.88
2022-09-29T11:08:58.374Z,99424.91
2022-09-29T11:11:31.288Z,99430.50
2022-09-29T11:13:59.323Z,99430.28
2022-09-29T11:16:40.197Z,99429.09
2022-09-29T11:19:12.656Z,99426.19
2022-09-29T11:21:41.954Z,99434.88
2022-09-29T11:24:17.556Z,99440.25
2022-09-29T11:26:53.198Z,99440.25
2022-09-29T11:29:50.406Z,99441.28
2022-09-29T11:32:37.834Z,99440.66
2022-09-29T11:35:06.096Z,99443.72
2022-09-29T11:37:57.919Z,99444.38
2022-09-29T11:40:47.598Z,99446.03
2022-09-29T11:43:35.343Z,99450.22
2022-09-29T11:46:29.418Z,99454.72
2022-09-29T11:49:01.450Z,99451.00
2022-09-29T11:51:49.539Z,99452.88
2022-09-29T11:54:46.063Z,99447.72
2022-09-29T11:57:36.845Z,99455.94
2022-09-29T12:00:12.036Z,99458.00
2022-09-29T12:02:55.207Z,99456.78
2022-09-29T12:05:44.759Z,99455.94
2022-09-29T12:08:29.872Z,99464.16
2022-09-29T12:11:44.256Z,99456.34
2022-09-29T12:14:18.255Z,99466.50
2022-09-29T12:16:57.276Z,99463.63
2022-09-29T12:19:29.002Z,99458.00
2022-09-29T12:21:59.577Z,99469.78
2022-09-29T12:24:42.973Z,99474.56
2022-09-29T12:27:28.096Z,99467.97
2022-09-29T12:30:03.839Z,99468.38
2022-09-29T12:32:41.323Z,99468.16
2022-09-29T12:35:31.052Z,99474.38
2022-09-29T12:38:08.895Z,99480.94
2022-09-29T12:40:41.719Z,99472.88
2022-09-29T12:43:33.057Z,99475.00
2022-09-29T12:46:32.359Z,99474.38
2022-09-29T12:49:06.479Z,99476.81
2022-09-29T12:51:35.487Z,99478.22
2022-09-29T12:54:42.716Z,99488.44
2022-09-29T12:57:17.294Z,99478.47
2022-09-29T13:00:01.227Z,99473.34
2022-09-29T13:02:46.999Z,99476.22
2022-09-29T13:05:19.172Z,99471.25
2022-09-29T13:08:02.250Z,99478.25
2022-09-29T13:10:54.076Z,99484.44
2022-09-29T13:13:49.998Z,99485.75
2022-09-29T13:16:25.398Z,99483.59
2022-09-29T13:19:23.057Z,99486.59
2022-09-29T13:22:25.131Z,99483.06
2022-09-29T13:25:11.224Z,99482.84
2022-09-29T13:27:42.381Z,99485.69
2022-09-29T13:30:14.625Z,99488.19
2022-09-29T13:32:46.676Z,99489.41
2022-09-29T13:35:24.521Z,99484.09
2022-09-29T13:38:03.075Z,99493.38
2022-09-29T13:40:30.824Z,99488.78
2022-09-29T13:42:59.361Z,99497.66
2022-09-29T13:45:30.774Z,99487.75
2022-09-29T13:48:01.977Z,99493.31
2022-09-29T13:50:45.310Z,99492.78
2022-09-29T13:53:32.893Z,99490.09
2022-09-29T13:56:02.371Z,99491.50
2022-09-29T13:58:33.564Z,99494.97
2022-09-29T14:01:02.624Z,99495.59
2022-09-29T14:03:43.743Z,99491.72
2022-09-29T14:06:39.565Z,99495.88
2022-09-29T14:09:15.389Z,99491.28
2022-09-29T14:11:50.778Z,99491.94
2022-09-29T14:14:29.500Z,99490.28
2022-09-29T14:17:05.441Z,99488.44
2022-09-29T14:19:53.073Z,99491.34
2022-09-29T14:22:31.412Z,99498.59
2022-09-29T14:25:15.199Z,99494.03
2022-09-29T14:28:03.108Z,99493.41
2022-09-29T14:30:35.840Z,99506.38
2022-09-29T14:33:31.374Z,99498.09
2022-09-29T14:36:00.718Z,99511.75
2022-09-29T14:38:44.743Z,99509.13
2022-09-29T14:41:11.259Z,99515.88
2022-09-29T14:43:42.805Z,99521.22
2022-09-29T14:47:05.544Z,99522.56
2022-09-29T14:49:56.650Z,99536.19
2022-09-29T14:52:42.110Z,99518.34
2022-09-29T14:55:28.632Z,99532.88
2022-09-29T14:58:23.489Z,99535.56
2022-09-29T15:01:03.599Z,99544.00
2022-09-29T15:03:35.631Z,99540.03
2022-09-29T15:06:17.899Z,99542.97
2022-09-29T15:09:00.923Z,99550.00
2022-09-29T15:11:38.219Z,99546.63
2022-09-29T15:14:23.638Z,99552.31
2022-09-29T15:17:06.849Z,99551.88
2022-09-29T15:19:44.910Z,99544.78
2022-09-29T15:22:37.853Z,99556.19
2022-09-29T15:25:27.818Z,99542.34
2022-09-29T15:27:55.839Z,99557.19
2022-09-29T15:30:23.637Z,99549.13
2022-09-29T15:32:52.084Z,99541.91
2022-09-29T15:35:24.613Z,99544.84
2022-09-29T15:37:50.968Z,99549.31
2022-09-29T15:40:21.352Z,99552.28
2022-09-29T15:42:48.278Z,99550.13
2022-09-29T15:45:22.104Z,99552.69
2022-09-29T15:47:48.722Z,99551.38
2022-09-29T15:50:19.614Z,99556.41
2022-09-29T15:52:46.639Z,99553.03
2022-09-29T15:55:24.041Z,99555.19
2022-09-29T15:57:57.902Z,99552.22
2022-09-29T16:00:24.348Z,99555.50
2022-09-29T16:03:06.004Z,99564.06
2022-09-29T16:05:40.059Z,99573.13
2022-09-29T16:08:20.165Z,99576.88
2022-09-29T16:10:55.166Z,99570.03
2022-09-29T16:13:31.151Z,99572.31
2022-09-29T16:16:01.653Z,99583.66
2022-09-29T16:18:38.622Z,99585.97
2022-09-29T16:21:09.192Z,99589.03
2022-09-29T16:23:59.027Z,99589.06
2022-09-29T16:26:31.491Z,99600.22
2022-09-29T16:29:04.007Z,99600.63
2022-09-29T16:31:31.853Z,99605.72
2022-09-29T16:34:00.706Z,99606.34
2022-09-29T16:36:29.131Z,99600.56
2022-09-29T16:38:55.617Z,99608.63
2022-09-29T16:41:34.328Z,99603.94
2022-09-29T16:44:13.124Z,99605.59
2022-09-29T16:47:04.117Z,99609.09
2022-09-29T16:49:33.420Z,99614.59
2022-09-29T16:52:19.658Z,99619.00
2022-09-29T16:54:47.873Z,99621.00
2022-09-29T16:57:30.337Z,99619.19
2022-09-29T16:59:59.367Z,99625.56
2022-09-29T17:02:27.600Z,99623.06
2022-09-29T17:04:55.574Z,99627.59
2022-09-29T17:07:27.386Z,99626.19
2022-09-29T17:09:56.586Z,99634.63
2022-09-29T17:12:24.199Z,99637.72
2022-09-29T17:14:51.069Z,99637.72
2022-09-29T17:17:22.452Z,99646.81
2022-09-29T17:19:50.563Z,99644.84
2022-09-29T17:22:37.023Z,99659.72
2022-09-29T17:25:04.246Z,99660.19
2022-09-29T17:27:49.051Z,99658.72
2022-09-29T17:30:22.832Z,99662.53
2022-09-29T17:32:50.918Z,99660.75
2022-09-29T17:35:19.313Z,99671.97
2022-09-29T17:37:48.519Z,99666.31
2022-09-29T17:40:25.443Z,99683.44
2022-09-29T17:42:51.987Z,99674.03
2022-09-29T17:45:20.609Z,99679.22
2022-09-29T17:47:48.513Z,99689.28
2022-09-29T17:50:24.806Z,99678.81
2022-09-29T17:52:52.245Z,99683.09
2022-09-29T17:55:19.178Z,99681.41
2022-09-29T17:57:47.439Z,99681.41
2022-09-29T18:00:21.268Z,99685.00
2022-09-29T18:02:50.393Z,99694.81
2022-09-29T18:05:23.756Z,99697.50
2022-09-29T18:07:55.287Z,99694.19
2022-09-29T18:10:36.006Z,99701.25
2022-09-29T18:13:02.383Z,99706.59
2022-09-29T18:15:28.743Z,99696.03
2022-09-29T18:17:57.210Z,99708.25
2022-09-29T18:20:24.999Z,99712.16
2022-09-29T18:22:51.425Z,99716.72
2022-09-29T18:25:19.345Z,99714.84
2022-09-29T18:27:47.235Z,99716.88
2022-09-29T18:30:19.539Z,99722.06
2022-09-29T18:32:55.377Z,99721.78
2022-09-29T18:35:24.584Z,99726.41
2022-09-29T18:37:51.422Z,99725.13
2022-09-29T18:40:19.140Z,99728.44
2022-09-29T18:42:48.095Z,99730.13
2022-09-29T18:45:23.146Z,99726.41
2022-09-29T18:47:55.016Z,99735.94
2022-09-29T18:50:27.515Z,99738.47
2022-09-29T18:52:54.558Z,99735.69
2022-09-29T18:55:25.613Z,99736.25
2022-09-29T18:57:56.923Z,99739.47
2022-09-29T19:00:26.096Z,99740.59
2022-09-29T19:02:53.004Z,99748.63
2022-09-29T19:05:28.845Z,99751.97
2022-09-29T19:07:58.469Z,99750.69
2022-09-29T19:10:25.663Z,99754.00
2022-09-29T19:12:58.510Z,99761.88
2022-09-29T19:15:25.998Z,99755.88
2022-09-29T19:17:56.750Z,99760.41
2022-09-29T19:20:28.226Z,99764.00
2022-09-29T19:22:55.694Z,99765.13
2022-09-29T19:25:25.256Z,99771.63
2022-09-29T19:27:52.701Z,99770.34
2022-09-29T19:30:21.574Z,99781.72
2022-09-29T19:32:49.091Z,99781.91
2022-09-29T19:35:19.772Z,99783.84
2022-09-29T19:37:46.567Z,99789.31
2022-09-29T19:40:19.066Z,99792.72
2022-09-29T19:42:45.460Z,99788.66
2022-09-29T19:45:12.007Z,99796.31
2022-09-29T19:47:38.511Z,99799.00
2022-09-29T19:50:25.300Z,99802.34
2022-09-29T19:52:51.686Z,99803.56
2022-09-29T19:55:18.274Z,99808.94
2022-09-29T19:57:45.006Z,99800.03
2022-09-29T20:00:19.474Z,99805.31
2022-09-29T20:02:46.706Z,99810.78
2022-09-29T20:05:14.980Z,99815.97
2022-09-29T20:07:44.026Z,99812.81
2022-09-29T20:10:16.514Z,99819.75
2022-09-29T20:12:43.113Z,99811.72
2022-09-29T20:15:11.873Z,99822.53
2022-09-29T20:17:40.237Z,99829.59
2022-09-29T20:20:10.031Z,99838.28
2022-09-29T20:22:36.887Z,99831.44
2022-09-29T20:25:05.318Z,99842.81
2022-09-29T20:27:31.885Z,99834.31
2022-09-29T20:29:58.332Z,99827.91
2022-09-29T20:32:24.862Z,99821.91
2022-09-29T20:34:51.339Z,99830.59
2022-09-29T20:37:17.768Z,99838.63
2022-09-29T20:39:44.222Z,99826.25
2022-09-29T20:42:11.758Z,99835.13
2022-09-29T20:44:38.155Z,99849.38
2022-09-29T20:47:04.573Z,99851.22
2022-09-29T20:49:31.020Z,99853.09
2022-09-29T20:51:59.208Z,99860.13
2022-09-29T20:54:25.726Z,99859.50
2022-09-29T20:56:53.575Z,99863.00
2022-09-29T20:59:23.539Z,99864.97
2022-09-29T21:01:52.294Z,99868.38
2022-09-29T21:04:20.974Z,99871.25
2022-09-29T21:06:49.882Z,99862.63
2022-09-29T21:09:19.908Z,99867.16
2022-09-29T21:11:47.229Z,99857.00
2022-09-29T21:14:19.473Z,99860.22
2022-09-29T21:16:48.600Z,99860.31
2022-09-29T21:19:15.034Z,99860.50
2022-09-29T21:21:43.481Z,99857.63
2022-09-29T21:24:10.899Z,99863.00
2022-09-29T21:26:37.699Z,99866.91
2022-09-29T21:29:04.211Z,99867.72
2022-09-29T21:31:33.605Z,99872.94
2022-09-29T21:34:02.213Z,99871.88
2022-09-29T21:36:30.362Z,99866.69
2022-09-29T21:39:00.777Z,99868.56
2022-09-29T21:41:34.637Z,99866.53
2022-09-29T21:44:06.237Z,99865.50
2022-09-29T21:46:34.236Z,99875.59
2022-09-29T21:49:03.587Z,99879.94
2022-09-29T21:51:35.891Z,99875.88
2022-09-29T21:54:02.971Z,99871.25
2022-09-29T21:56:31.986Z,99878.28
2022-09-29T21:58:59.018Z,99868.94
2022-09-29T22:01:27.332Z,99871.25
2022-09-29T22:03:56.119Z,99873.38
2022-09-29T22:06:28.186Z,99882.91
2022-09-29T22:08:56.152Z,99869.59
2022-09-29T22:11:25.723Z,99877.09
2022-09-29T22:13:55.746Z,99875.78
2022-09-29T22:16:25.529Z,99871.63
2022-09-29T22:19:18.403Z,99873.94
2022-09-29T22:21:40.456Z,99876.78
2022-09-29T22:24:07.262Z,99872.44
2022-09-29T22:26:33.795Z,99876.13
2022-09-29T22:29:02.791Z,99881.97
2022-09-29T22:31:30.910Z,99880.31
2022-09-29T22:34:00.170Z,99882.16
2022-09-29T22:36:28.703Z,99881.16
2022-09-29T22:38:55.141Z,99877.66
2022-09-29T22:41:23.887Z,99880.69
2022-09-29T22:43:55.385Z,99884.94
2022-09-29T22:46:23.465Z,99873.34
2022-09-29T22:48:49.941Z,99879.47
2022-09-29T22:51:16.494Z,99873.28
2022-09-29T22:53:43.134Z,99881.34
2022-09-29T22:56:12.583Z,99881.16
2022-09-29T22:58:40.293Z,99877.34
2022-09-29T23:01:13.683Z,99883.66
2022-09-29T23:03:41.690Z,99890.41
2022-09-29T23:06:08.241Z,99882.38
2022-09-29T23:08:36.296Z,99888.56
2022-09-29T23:11:05.402Z,99884.19
2022-09-29T23:13:34.258Z,99885.41
2022-09-29T23:16:09.642Z,99886.97
2022-09-29T23:18:43.698Z,99890.78
2022-09-29T23:21:11.914Z,99896.78
2022-09-29T23:23:38.468Z,99900.31
2022-09-29T23:26:05.178Z,99907.53
2022-09-29T23:28:31.559Z,99902.97
2022-09-29T23:31:06.451Z,99904.75
2022-09-29T23:33:33.068Z,99907.53
2022-09-29T23:36:13.804Z,99900.22
2022-09-29T23:39:00.760Z,99896.78
2022-09-29T23:41:29.813Z,99896.97
2022-09-29T23:43:58.321Z,99896.78
2022-09-29T23:46:26.867Z,99895.31
2022-09-29T23:48:53.381Z,99893.66
2022-09-29T23:51:19.786Z,99893.44
2022-09-29T23:53:46.586Z,99891.81
2022-09-29T23:56:12.988Z,99884.75
2022-09-29T23:58:39.491Z,99895.13
